sensor_id;sensor_type;location;lat;lon;timestamp;P1;durP1;ratioP1;P2;durP2;ratioP2
75061;SDS011;63641;46.526;24.612;2023-06-26T00:02:18;94.38;;;6.53;;
75061;SDS011;63641;46.526;24.612;2023-06-26T00:04:44;128.02;;;7.28;;
75061;SDS011;63641;46.526;24.612;2023-06-26T00:07:11;68.00;;;6.57;;
75061;SDS011;63641;46.526;24.612;2023-06-26T00:09:38;57.30;;;6.10;;
75061;SDS011;63641;46.526;24.612;2023-06-26T00:12:05;49.95;;;6.07;;
75061;SDS011;63641;46.526;24.612;2023-06-26T00:14:32;141.20;;;9.15;;
75061;SDS011;63641;46.526;24.612;2023-06-26T00:16:58;58.03;;;5.90;;
75061;SDS011;63641;46.526;24.612;2023-06-26T00:19:25;57.50;;;7.35;;
75061;SDS011;63641;46.526;24.612;2023-06-26T00:21:52;112.78;;;8.20;;
75061;SDS011;63641;46.526;24.612;2023-06-26T00:24:19;75.90;;;6.70;;
75061;SDS011;63641;46.526;24.612;2023-06-26T00:26:46;44.20;;;5.13;;
75061;SDS011;63641;46.526;24.612;2023-06-26T00:29:13;27.75;;;5.57;;
75061;SDS011;63641;46.526;24.612;2023-06-26T00:31:40;14.60;;;4.90;;
75061;SDS011;63641;46.526;24.612;2023-06-26T00:34:07;7.00;;;4.97;;
75061;SDS011;63641;46.526;24.612;2023-06-26T00:36:34;9.23;;;4.85;;
75061;SDS011;63641;46.526;24.612;2023-06-26T00:39:00;78.20;;;6.78;;
75061;SDS011;63641;46.526;24.612;2023-06-26T00:41:29;5.97;;;5.25;;
75061;SDS011;63641;46.526;24.612;2023-06-26T00:43:56;15.40;;;5.78;;
75061;SDS011;63641;46.526;24.612;2023-06-26T00:46:22;35.55;;;6.97;;
75061;SDS011;63641;46.526;24.612;2023-06-26T00:48:51;20.42;;;6.15;;
75061;SDS011;63641;46.526;24.612;2023-06-26T00:51:18;37.35;;;5.55;;
75061;SDS011;63641;46.526;24.612;2023-06-26T00:53:45;18.48;;;5.63;;
75061;SDS011;63641;46.526;24.612;2023-06-26T00:56:12;6.50;;;5.28;;
75061;SDS011;63641;46.526;24.612;2023-06-26T00:58:39;9.88;;;5.68;;
75061;SDS011;63641;46.526;24.612;2023-06-26T01:01:06;6.55;;;5.43;;
75061;SDS011;63641;46.526;24.612;2023-06-26T01:03:35;5.68;;;5.10;;
75061;SDS011;63641;46.526;24.612;2023-06-26T01:06:06;6.22;;;5.03;;
75061;SDS011;63641;46.526;24.612;2023-06-26T01:08:35;8.35;;;5.20;;
75061;SDS011;63641;46.526;24.612;2023-06-26T01:11:02;10.00;;;5.28;;
75061;SDS011;63641;46.526;24.612;2023-06-26T01:13:29;9.25;;;4.70;;
75061;SDS011;63641;46.526;24.612;2023-06-26T01:15:57;8.38;;;5.45;;
75061;SDS011;63641;46.526;24.612;2023-06-26T01:18:25;8.20;;;4.60;;
75061;SDS011;63641;46.526;24.612;2023-06-26T01:20:52;5.10;;;4.57;;
75061;SDS011;63641;46.526;24.612;2023-06-26T01:23:24;10.77;;;4.97;;
75061;SDS011;63641;46.526;24.612;2023-06-26T01:28:35;21.10;;;5.95;;
75061;SDS011;63641;46.526;24.612;2023-06-26T01:31:07;5.55;;;4.50;;
75061;SDS011;63641;46.526;24.612;2023-06-26T01:33:34;7.57;;;4.60;;
75061;SDS011;63641;46.526;24.612;2023-06-26T01:36:02;56.17;;;5.85;;
75061;SDS011;63641;46.526;24.612;2023-06-26T01:38:29;45.63;;;5.60;;
75061;SDS011;63641;46.526;24.612;2023-06-26T01:40:56;9.18;;;4.63;;
75061;SDS011;63641;46.526;24.612;2023-06-26T01:46:21;3.70;;;3.40;;
75061;SDS011;63641;46.526;24.612;2023-06-26T01:51:53;4.47;;;3.20;;
75061;SDS011;63641;46.526;24.612;2023-06-26T01:54:25;5.93;;;3.72;;
75061;SDS011;63641;46.526;24.612;2023-06-26T01:56:56;3.67;;;3.38;;
75061;SDS011;63641;46.526;24.612;2023-06-26T01:59:24;3.97;;;2.83;;
75061;SDS011;63641;46.526;24.612;2023-06-26T02:01:53;4.50;;;3.10;;
75061;SDS011;63641;46.526;24.612;2023-06-26T02:04:20;4.00;;;2.92;;
75061;SDS011;63641;46.526;24.612;2023-06-26T02:06:47;3.85;;;2.95;;
75061;SDS011;63641;46.526;24.612;2023-06-26T02:09:14;5.45;;;2.85;;
75061;SDS011;63641;46.526;24.612;2023-06-26T02:11:41;4.45;;;2.90;;
75061;SDS011;63641;46.526;24.612;2023-06-26T02:14:07;3.60;;;3.00;;
75061;SDS011;63641;46.526;24.612;2023-06-26T02:16:35;3.20;;;2.60;;
75061;SDS011;63641;46.526;24.612;2023-06-26T02:19:02;3.67;;;3.03;;
75061;SDS011;63641;46.526;24.612;2023-06-26T02:21:28;3.55;;;3.10;;
75061;SDS011;63641;46.526;24.612;2023-06-26T02:23:55;3.05;;;2.75;;
75061;SDS011;63641;46.526;24.612;2023-06-26T02:26:22;3.10;;;2.78;;
75061;SDS011;63641;46.526;24.612;2023-06-26T02:28:49;3.08;;;2.70;;
75061;SDS011;63641;46.526;24.612;2023-06-26T02:31:16;5.55;;;3.67;;
75061;SDS011;63641;46.526;24.612;2023-06-26T02:33:42;3.05;;;2.75;;
75061;SDS011;63641;46.526;24.612;2023-06-26T02:36:11;3.60;;;2.78;;
75061;SDS011;63641;46.526;24.612;2023-06-26T02:38:38;2.85;;;2.53;;
75061;SDS011;63641;46.526;24.612;2023-06-26T02:41:04;3.75;;;2.95;;
75061;SDS011;63641;46.526;24.612;2023-06-26T02:43:31;4.78;;;2.80;;
75061;SDS011;63641;46.526;24.612;2023-06-26T02:45:58;3.00;;;2.70;;
75061;SDS011;63641;46.526;24.612;2023-06-26T02:48:24;4.18;;;3.15;;
75061;SDS011;63641;46.526;24.612;2023-06-26T02:50:51;4.78;;;3.03;;
75061;SDS011;63641;46.526;24.612;2023-06-26T02:53:18;4.00;;;2.83;;
75061;SDS011;63641;46.526;24.612;2023-06-26T02:55:45;3.03;;;2.80;;
75061;SDS011;63641;46.526;24.612;2023-06-26T02:58:13;3.58;;;3.05;;
75061;SDS011;63641;46.526;24.612;2023-06-26T03:00:40;2.92;;;2.67;;
75061;SDS011;63641;46.526;24.612;2023-06-26T03:03:08;3.55;;;2.75;;
75061;SDS011;63641;46.526;24.612;2023-06-26T03:05:35;4.32;;;2.90;;
75061;SDS011;63641;46.526;24.612;2023-06-26T03:08:02;4.40;;;3.22;;
75061;SDS011;63641;46.526;24.612;2023-06-26T03:10:29;4.50;;;3.40;;
75061;SDS011;63641;46.526;24.612;2023-06-26T03:12:56;3.72;;;3.05;;
75061;SDS011;63641;46.526;24.612;2023-06-26T03:15:23;3.50;;;3.20;;
75061;SDS011;63641;46.526;24.612;2023-06-26T03:17:50;3.63;;;3.00;;
75061;SDS011;63641;46.526;24.612;2023-06-26T03:20:16;4.63;;;3.10;;
75061;SDS011;63641;46.526;24.612;2023-06-26T03:22:43;3.58;;;3.28;;
75061;SDS011;63641;46.526;24.612;2023-06-26T03:25:09;5.40;;;2.95;;
75061;SDS011;63641;46.526;24.612;2023-06-26T03:27:37;5.78;;;2.90;;
75061;SDS011;63641;46.526;24.612;2023-06-26T03:30:03;4.22;;;3.30;;
75061;SDS011;63641;46.526;24.612;2023-06-26T03:32:30;4.15;;;3.25;;
75061;SDS011;63641;46.526;24.612;2023-06-26T03:34:57;5.30;;;3.42;;
75061;SDS011;63641;46.526;24.612;2023-06-26T03:37:24;4.18;;;3.15;;
75061;SDS011;63641;46.526;24.612;2023-06-26T03:39:50;3.83;;;3.53;;
75061;SDS011;63641;46.526;24.612;2023-06-26T03:42:18;4.78;;;2.90;;
75061;SDS011;63641;46.526;24.612;2023-06-26T03:44:44;3.53;;;3.10;;
75061;SDS011;63641;46.526;24.612;2023-06-26T03:47:11;3.22;;;2.92;;
75061;SDS011;63641;46.526;24.612;2023-06-26T03:49:38;4.45;;;3.08;;
75061;SDS011;63641;46.526;24.612;2023-06-26T03:52:04;5.32;;;3.30;;
75061;SDS011;63641;46.526;24.612;2023-06-26T03:54:31;3.85;;;3.30;;
75061;SDS011;63641;46.526;24.612;2023-06-26T03:56:59;3.53;;;3.13;;
75061;SDS011;63641;46.526;24.612;2023-06-26T03:59:26;3.20;;;3.00;;
75061;SDS011;63641;46.526;24.612;2023-06-26T04:01:53;3.70;;;3.40;;
75061;SDS011;63641;46.526;24.612;2023-06-26T04:04:20;4.43;;;3.80;;
75061;SDS011;63641;46.526;24.612;2023-06-26T04:06:46;3.45;;;3.15;;
75061;SDS011;63641;46.526;24.612;2023-06-26T04:09:13;3.55;;;3.10;;
75061;SDS011;63641;46.526;24.612;2023-06-26T04:11:40;4.13;;;3.75;;
75061;SDS011;63641;46.526;24.612;2023-06-26T04:14:07;4.10;;;3.70;;
75061;SDS011;63641;46.526;24.612;2023-06-26T04:16:33;4.28;;;3.47;;
75061;SDS011;63641;46.526;24.612;2023-06-26T04:19:00;4.20;;;3.80;;
75061;SDS011;63641;46.526;24.612;2023-06-26T04:21:28;4.63;;;3.72;;
75061;SDS011;63641;46.526;24.612;2023-06-26T04:23:55;4.40;;;3.72;;
75061;SDS011;63641;46.526;24.612;2023-06-26T04:26:21;5.75;;;3.72;;
75061;SDS011;63641;46.526;24.612;2023-06-26T04:28:48;3.90;;;3.55;;
75061;SDS011;63641;46.526;24.612;2023-06-26T04:31:15;5.10;;;3.33;;
75061;SDS011;63641;46.526;24.612;2023-06-26T04:33:42;4.78;;;3.78;;
75061;SDS011;63641;46.526;24.612;2023-06-26T04:36:09;4.25;;;3.80;;
75061;SDS011;63641;46.526;24.612;2023-06-26T04:38:36;4.72;;;3.63;;
75061;SDS011;63641;46.526;24.612;2023-06-26T04:41:03;5.57;;;3.90;;
75061;SDS011;63641;46.526;24.612;2023-06-26T04:43:30;4.10;;;3.70;;
75061;SDS011;63641;46.526;24.612;2023-06-26T04:45:56;4.45;;;3.55;;
75061;SDS011;63641;46.526;24.612;2023-06-26T04:48:23;4.25;;;3.60;;
75061;SDS011;63641;46.526;24.612;2023-06-26T04:50:50;3.80;;;3.50;;
75061;SDS011;63641;46.526;24.612;2023-06-26T04:53:20;4.10;;;3.65;;
75061;SDS011;63641;46.526;24.612;2023-06-26T04:55:49;4.70;;;3.75;;
75061;SDS011;63641;46.526;24.612;2023-06-26T04:58:16;3.70;;;3.30;;
75061;SDS011;63641;46.526;24.612;2023-06-26T05:00:43;6.70;;;3.55;;
75061;SDS011;63641;46.526;24.612;2023-06-26T05:03:13;4.10;;;3.70;;
75061;SDS011;63641;46.526;24.612;2023-06-26T05:05:41;4.18;;;3.67;;
75061;SDS011;63641;46.526;24.612;2023-06-26T05:08:15;5.05;;;4.20;;
75061;SDS011;63641;46.526;24.612;2023-06-26T05:10:49;4.90;;;3.75;;
75061;SDS011;63641;46.526;24.612;2023-06-26T05:13:16;4.45;;;3.60;;
75061;SDS011;63641;46.526;24.612;2023-06-26T05:15:45;3.78;;;3.38;;
75061;SDS011;63641;46.526;24.612;2023-06-26T05:18:12;4.20;;;3.80;;
75061;SDS011;63641;46.526;24.612;2023-06-26T05:20:39;4.95;;;4.00;;
75061;SDS011;63641;46.526;24.612;2023-06-26T05:23:06;4.40;;;3.97;;
75061;SDS011;63641;46.526;24.612;2023-06-26T05:25:33;3.65;;;3.28;;
75061;SDS011;63641;46.526;24.612;2023-06-26T05:28:01;4.43;;;3.83;;
75061;SDS011;63641;46.526;24.612;2023-06-26T05:30:28;4.68;;;3.95;;
75061;SDS011;63641;46.526;24.612;2023-06-26T05:32:58;3.72;;;3.40;;
75061;SDS011;63641;46.526;24.612;2023-06-26T05:35:28;6.22;;;3.88;;
75061;SDS011;63641;46.526;24.612;2023-06-26T05:37:57;6.40;;;3.83;;
75061;SDS011;63641;46.526;24.612;2023-06-26T05:40:24;4.03;;;3.72;;
75061;SDS011;63641;46.526;24.612;2023-06-26T05:42:52;3.80;;;3.50;;
75061;SDS011;63641;46.526;24.612;2023-06-26T05:45:19;3.92;;;3.60;;
75061;SDS011;63641;46.526;24.612;2023-06-26T05:47:45;7.68;;;3.88;;
75061;SDS011;63641;46.526;24.612;2023-06-26T05:50:13;4.18;;;3.58;;
75061;SDS011;63641;46.526;24.612;2023-06-26T05:52:40;4.10;;;3.70;;
75061;SDS011;63641;46.526;24.612;2023-06-26T05:55:07;4.30;;;3.90;;
75061;SDS011;63641;46.526;24.612;2023-06-26T05:57:34;5.25;;;3.60;;
75061;SDS011;63641;46.526;24.612;2023-06-26T06:00:03;3.75;;;3.30;;
75061;SDS011;63641;46.526;24.612;2023-06-26T06:02:38;4.05;;;3.67;;
75061;SDS011;63641;46.526;24.612;2023-06-26T06:05:06;5.75;;;3.92;;
75061;SDS011;63641;46.526;24.612;2023-06-26T06:07:33;5.05;;;4.15;;
75061;SDS011;63641;46.526;24.612;2023-06-26T06:10:04;4.95;;;4.50;;
75061;SDS011;63641;46.526;24.612;2023-06-26T06:12:32;4.57;;;3.83;;
75061;SDS011;63641;46.526;24.612;2023-06-26T06:14:58;4.25;;;3.70;;
75061;SDS011;63641;46.526;24.612;2023-06-26T06:17:25;4.53;;;4.07;;
75061;SDS011;63641;46.526;24.612;2023-06-26T06:19:52;4.05;;;3.55;;
75061;SDS011;63641;46.526;24.612;2023-06-26T06:22:18;4.50;;;4.10;;
75061;SDS011;63641;46.526;24.612;2023-06-26T06:24:45;4.43;;;4.03;;
75061;SDS011;63641;46.526;24.612;2023-06-26T06:27:13;4.45;;;4.05;;
75061;SDS011;63641;46.526;24.612;2023-06-26T06:29:40;3.80;;;3.50;;
75061;SDS011;63641;46.526;24.612;2023-06-26T06:32:07;3.80;;;3.50;;
75061;SDS011;63641;46.526;24.612;2023-06-26T06:34:34;4.15;;;3.75;;
75061;SDS011;63641;46.526;24.612;2023-06-26T06:37:01;5.80;;;3.70;;
75061;SDS011;63641;46.526;24.612;2023-06-26T06:39:29;4.32;;;3.67;;
75061;SDS011;63641;46.526;24.612;2023-06-26T06:41:55;5.15;;;3.75;;
75061;SDS011;63641;46.526;24.612;2023-06-26T06:44:22;4.63;;;4.22;;
75061;SDS011;63641;46.526;24.612;2023-06-26T06:46:49;4.72;;;4.30;;
75061;SDS011;63641;46.526;24.612;2023-06-26T06:49:16;4.22;;;3.75;;
75061;SDS011;63641;46.526;24.612;2023-06-26T06:51:42;6.30;;;3.95;;
75061;SDS011;63641;46.526;24.612;2023-06-26T06:54:09;6.15;;;4.28;;
75061;SDS011;63641;46.526;24.612;2023-06-26T06:56:36;5.05;;;4.28;;
75061;SDS011;63641;46.526;24.612;2023-06-26T06:59:02;6.60;;;4.25;;
75061;SDS011;63641;46.526;24.612;2023-06-26T07:01:29;6.28;;;3.90;;
75061;SDS011;63641;46.526;24.612;2023-06-26T07:03:56;4.57;;;4.07;;
75061;SDS011;63641;46.526;24.612;2023-06-26T07:06:24;4.25;;;3.80;;
75061;SDS011;63641;46.526;24.612;2023-06-26T07:08:51;4.30;;;3.90;;
75061;SDS011;63641;46.526;24.612;2023-06-26T07:11:17;5.35;;;4.22;;
75061;SDS011;63641;46.526;24.612;2023-06-26T07:13:44;4.82;;;3.58;;
75061;SDS011;63641;46.526;24.612;2023-06-26T07:16:13;4.78;;;4.28;;
75061;SDS011;63641;46.526;24.612;2023-06-26T07:18:41;4.60;;;4.03;;
75061;SDS011;63641;46.526;24.612;2023-06-26T07:21:10;4.95;;;4.20;;
75061;SDS011;63641;46.526;24.612;2023-06-26T07:23:37;5.40;;;4.50;;
75061;SDS011;63641;46.526;24.612;2023-06-26T07:26:03;6.15;;;4.68;;
75061;SDS011;63641;46.526;24.612;2023-06-26T07:28:30;5.78;;;4.57;;
75061;SDS011;63641;46.526;24.612;2023-06-26T07:30:57;5.95;;;4.15;;
75061;SDS011;63641;46.526;24.612;2023-06-26T07:33:24;4.20;;;3.80;;
75061;SDS011;63641;46.526;24.612;2023-06-26T07:35:51;5.68;;;4.25;;
75061;SDS011;63641;46.526;24.612;2023-06-26T07:38:17;8.40;;;4.50;;
75061;SDS011;63641;46.526;24.612;2023-06-26T07:40:44;5.07;;;4.10;;
75061;SDS011;63641;46.526;24.612;2023-06-26T07:43:11;6.47;;;4.00;;
75061;SDS011;63641;46.526;24.612;2023-06-26T07:45:38;3.75;;;3.45;;
75061;SDS011;63641;46.526;24.612;2023-06-26T07:48:05;4.57;;;3.75;;
75061;SDS011;63641;46.526;24.612;2023-06-26T07:50:32;4.10;;;3.70;;
75061;SDS011;63641;46.526;24.612;2023-06-26T07:52:59;4.38;;;3.97;;
75061;SDS011;63641;46.526;24.612;2023-06-26T07:55:26;4.53;;;3.80;;
75061;SDS011;63641;46.526;24.612;2023-06-26T07:57:53;4.53;;;3.65;;
75061;SDS011;63641;46.526;24.612;2023-06-26T08:00:21;5.32;;;3.72;;
75061;SDS011;63641;46.526;24.612;2023-06-26T08:02:48;4.53;;;3.65;;
75061;SDS011;63641;46.526;24.612;2023-06-26T08:05:15;5.25;;;3.10;;
75061;SDS011;63641;46.526;24.612;2023-06-26T08:07:42;3.28;;;2.97;;
75061;SDS011;63641;46.526;24.612;2023-06-26T08:10:09;5.35;;;3.30;;
75061;SDS011;63641;46.526;24.612;2023-06-26T08:12:36;3.38;;;3.08;;
75061;SDS011;63641;46.526;24.612;2023-06-26T08:15:06;4.50;;;3.50;;
75061;SDS011;63641;46.526;24.612;2023-06-26T08:17:34;5.47;;;3.35;;
75061;SDS011;63641;46.526;24.612;2023-06-26T08:20:02;5.85;;;2.97;;
75061;SDS011;63641;46.526;24.612;2023-06-26T08:22:30;4.38;;;3.30;;
75061;SDS011;63641;46.526;24.612;2023-06-26T08:24:57;4.07;;;3.10;;
75061;SDS011;63641;46.526;24.612;2023-06-26T08:27:24;3.00;;;2.70;;
75061;SDS011;63641;46.526;24.612;2023-06-26T08:29:51;4.28;;;3.05;;
75061;SDS011;63641;46.526;24.612;2023-06-26T08:32:18;3.63;;;3.15;;
75061;SDS011;63641;46.526;24.612;2023-06-26T08:34:45;4.50;;;2.95;;
75061;SDS011;63641;46.526;24.612;2023-06-26T08:37:14;4.28;;;3.03;;
75061;SDS011;63641;46.526;24.612;2023-06-26T08:39:41;3.28;;;2.85;;
75061;SDS011;63641;46.526;24.612;2023-06-26T08:42:08;5.53;;;3.10;;
75061;SDS011;63641;46.526;24.612;2023-06-26T08:44:35;3.20;;;2.90;;
75061;SDS011;63641;46.526;24.612;2023-06-26T08:47:11;3.67;;;2.40;;
75061;SDS011;63641;46.526;24.612;2023-06-26T08:49:50;3.63;;;2.95;;
75061;SDS011;63641;46.526;24.612;2023-06-26T08:52:23;2.60;;;2.40;;
75061;SDS011;63641;46.526;24.612;2023-06-26T08:54:56;2.63;;;2.42;;
75061;SDS011;63641;46.526;24.612;2023-06-26T08:57:25;3.35;;;2.90;;
75061;SDS011;63641;46.526;24.612;2023-06-26T08:59:52;2.90;;;2.60;;
75061;SDS011;63641;46.526;24.612;2023-06-26T09:02:19;3.60;;;3.00;;
75061;SDS011;63641;46.526;24.612;2023-06-26T09:04:50;3.10;;;2.28;;
75061;SDS011;63641;46.526;24.612;2023-06-26T09:07:18;4.03;;;2.45;;
75061;SDS011;63641;46.526;24.612;2023-06-26T09:09:45;5.47;;;2.75;;
75061;SDS011;63641;46.526;24.612;2023-06-26T09:12:12;2.50;;;2.30;;
75061;SDS011;63641;46.526;24.612;2023-06-26T09:14:39;2.45;;;2.13;;
75061;SDS011;63641;46.526;24.612;2023-06-26T09:17:07;2.60;;;2.28;;
75061;SDS011;63641;46.526;24.612;2023-06-26T09:19:36;2.42;;;2.22;;
75061;SDS011;63641;46.526;24.612;2023-06-26T09:22:03;4.10;;;2.70;;
75061;SDS011;63641;46.526;24.612;2023-06-26T09:24:30;2.45;;;2.22;;
75061;SDS011;63641;46.526;24.612;2023-06-26T09:26:57;2.70;;;2.47;;
75061;SDS011;63641;46.526;24.612;2023-06-26T09:29:24;2.97;;;2.42;;
75061;SDS011;63641;46.526;24.612;2023-06-26T09:31:52;2.63;;;2.42;;
75061;SDS011;63641;46.526;24.612;2023-06-26T09:34:19;2.88;;;2.58;;
75061;SDS011;63641;46.526;24.612;2023-06-26T09:36:46;2.80;;;2.50;;
75061;SDS011;63641;46.526;24.612;2023-06-26T09:39:15;2.90;;;2.70;;
75061;SDS011;63641;46.526;24.612;2023-06-26T09:41:43;2.53;;;2.33;;
75061;SDS011;63641;46.526;24.612;2023-06-26T09:44:12;5.43;;;2.53;;
75061;SDS011;63641;46.526;24.612;2023-06-26T09:46:40;3.20;;;2.90;;
75061;SDS011;63641;46.526;24.612;2023-06-26T09:49:08;3.08;;;2.45;;
75061;SDS011;63641;46.526;24.612;2023-06-26T09:51:40;2.63;;;2.17;;
75061;SDS011;63641;46.526;24.612;2023-06-26T09:54:08;2.55;;;2.35;;
75061;SDS011;63641;46.526;24.612;2023-06-26T09:56:36;2.20;;;2.00;;
75061;SDS011;63641;46.526;24.612;2023-06-26T09:59:03;3.13;;;2.35;;
75061;SDS011;63641;46.526;24.612;2023-06-26T10:01:31;3.15;;;2.38;;
75061;SDS011;63641;46.526;24.612;2023-06-26T10:03:59;2.38;;;2.17;;
75061;SDS011;63641;46.526;24.612;2023-06-26T10:06:35;2.90;;;2.50;;
75061;SDS011;63641;46.526;24.612;2023-06-26T10:11:45;2.92;;;2.22;;
75061;SDS011;63641;46.526;24.612;2023-06-26T10:14:15;3.07;;;2.87;;
75061;SDS011;63641;46.526;24.612;2023-06-26T10:16:44;2.50;;;2.30;;
75061;SDS011;63641;46.526;24.612;2023-06-26T10:19:13;3.50;;;2.42;;
75061;SDS011;63641;46.526;24.612;2023-06-26T10:21:40;4.18;;;2.20;;
75061;SDS011;63641;46.526;24.612;2023-06-26T10:24:08;2.30;;;2.10;;
75061;SDS011;63641;46.526;24.612;2023-06-26T10:26:40;2.42;;;2.22;;
75061;SDS011;63641;46.526;24.612;2023-06-26T10:29:12;7.20;;;2.60;;
75061;SDS011;63641;46.526;24.612;2023-06-26T10:31:43;3.22;;;1.80;;
75061;SDS011;63641;46.526;24.612;2023-06-26T10:34:13;2.40;;;2.20;;
75061;SDS011;63641;46.526;24.612;2023-06-26T10:36:40;2.30;;;2.10;;
75061;SDS011;63641;46.526;24.612;2023-06-26T10:39:07;2.30;;;2.10;;
75061;SDS011;63641;46.526;24.612;2023-06-26T10:41:38;2.47;;;2.28;;
75061;SDS011;63641;46.526;24.612;2023-06-26T10:44:26;2.78;;;2.30;;
75061;SDS011;63641;46.526;24.612;2023-06-26T10:46:53;3.58;;;2.05;;
75061;SDS011;63641;46.526;24.612;2023-06-26T10:49:24;2.63;;;2.40;;
75061;SDS011;63641;46.526;24.612;2023-06-26T10:51:52;3.58;;;2.10;;
75061;SDS011;63641;46.526;24.612;2023-06-26T10:54:20;2.67;;;2.47;;
75061;SDS011;63641;46.526;24.612;2023-06-26T10:56:48;2.13;;;1.92;;
75061;SDS011;63641;46.526;24.612;2023-06-26T10:59:20;2.25;;;1.92;;
75061;SDS011;63641;46.526;24.612;2023-06-26T11:02:00;2.25;;;1.88;;
75061;SDS011;63641;46.526;24.612;2023-06-26T11:04:36;3.22;;;1.88;;
75061;SDS011;63641;46.526;24.612;2023-06-26T11:07:15;2.47;;;1.90;;
75061;SDS011;63641;46.526;24.612;2023-06-26T11:12:43;2.35;;;2.15;;
75061;SDS011;63641;46.526;24.612;2023-06-26T11:15:11;2.40;;;2.20;;
75061;SDS011;63641;46.526;24.612;2023-06-26T11:17:40;2.60;;;2.40;;
75061;SDS011;63641;46.526;24.612;2023-06-26T11:20:09;2.28;;;2.08;;
75061;SDS011;63641;46.526;24.612;2023-06-26T11:22:37;2.42;;;2.22;;
75061;SDS011;63641;46.526;24.612;2023-06-26T11:25:06;2.78;;;2.38;;
75061;SDS011;63641;46.526;24.612;2023-06-26T11:30:04;2.35;;;2.15;;
75061;SDS011;63641;46.526;24.612;2023-06-26T11:32:32;2.30;;;2.10;;
75061;SDS011;63641;46.526;24.612;2023-06-26T11:34:59;2.47;;;2.28;;
75061;SDS011;63641;46.526;24.612;2023-06-26T11:37:26;4.18;;;2.58;;
75061;SDS011;63641;46.526;24.612;2023-06-26T11:39:53;2.30;;;2.10;;
75061;SDS011;63641;46.526;24.612;2023-06-26T11:42:20;2.17;;;2.03;;
75061;SDS011;63641;46.526;24.612;2023-06-26T11:44:47;2.40;;;2.20;;
75061;SDS011;63641;46.526;24.612;2023-06-26T11:47:19;2.55;;;2.35;;
75061;SDS011;63641;46.526;24.612;2023-06-26T11:49:47;3.33;;;2.47;;
75061;SDS011;63641;46.526;24.612;2023-06-26T11:52:18;2.47;;;2.28;;
75061;SDS011;63641;46.526;24.612;2023-06-26T11:54:45;3.33;;;1.85;;
75061;SDS011;63641;46.526;24.612;2023-06-26T11:57:15;2.83;;;2.13;;
75061;SDS011;63641;46.526;24.612;2023-06-26T11:59:43;3.53;;;2.50;;
75061;SDS011;63641;46.526;24.612;2023-06-26T12:02:10;2.45;;;2.10;;
75061;SDS011;63641;46.526;24.612;2023-06-26T12:04:43;3.22;;;2.60;;
75061;SDS011;63641;46.526;24.612;2023-06-26T12:07:11;6.38;;;2.38;;
75061;SDS011;63641;46.526;24.612;2023-06-26T12:09:40;2.83;;;2.20;;
75061;SDS011;63641;46.526;24.612;2023-06-26T12:12:10;2.53;;;2.10;;
75061;SDS011;63641;46.526;24.612;2023-06-26T12:14:38;2.50;;;2.30;;
75061;SDS011;63641;46.526;24.612;2023-06-26T12:17:10;4.05;;;2.22;;
75061;SDS011;63641;46.526;24.612;2023-06-26T12:19:38;2.47;;;2.28;;
75061;SDS011;63641;46.526;24.612;2023-06-26T12:22:09;2.42;;;2.22;;
75061;SDS011;63641;46.526;24.612;2023-06-26T12:24:37;2.42;;;2.20;;
75061;SDS011;63641;46.526;24.612;2023-06-26T12:27:08;3.63;;;2.45;;
75061;SDS011;63641;46.526;24.612;2023-06-26T12:29:37;5.60;;;2.78;;
75061;SDS011;63641;46.526;24.612;2023-06-26T12:32:08;2.42;;;2.22;;
75061;SDS011;63641;46.526;24.612;2023-06-26T12:34:36;3.15;;;2.20;;
75061;SDS011;63641;46.526;24.612;2023-06-26T12:37:05;2.30;;;2.10;;
75061;SDS011;63641;46.526;24.612;2023-06-26T12:42:42;2.45;;;2.25;;
75061;SDS011;63641;46.526;24.612;2023-06-26T12:45:10;2.20;;;2.00;;
75061;SDS011;63641;46.526;24.612;2023-06-26T12:48:06;2.50;;;2.30;;
75061;SDS011;63641;46.526;24.612;2023-06-26T12:50:37;2.53;;;2.33;;
75061;SDS011;63641;46.526;24.612;2023-06-26T12:53:10;8.85;;;2.80;;
75061;SDS011;63641;46.526;24.612;2023-06-26T12:55:39;2.40;;;2.20;;
75061;SDS011;63641;46.526;24.612;2023-06-26T12:58:06;2.78;;;2.40;;
75061;SDS011;63641;46.526;24.612;2023-06-26T13:00:34;2.90;;;2.53;;
75061;SDS011;63641;46.526;24.612;2023-06-26T13:03:01;3.30;;;2.45;;
75061;SDS011;63641;46.526;24.612;2023-06-26T13:05:28;2.90;;;2.53;;
75061;SDS011;63641;46.526;24.612;2023-06-26T13:07:55;2.42;;;2.22;;
75061;SDS011;63641;46.526;24.612;2023-06-26T13:10:22;2.17;;;2.08;;
75061;SDS011;63641;46.526;24.612;2023-06-26T13:12:49;2.80;;;2.28;;
75061;SDS011;63641;46.526;24.612;2023-06-26T13:15:15;2.63;;;2.30;;
75061;SDS011;63641;46.526;24.612;2023-06-26T13:17:42;3.10;;;2.22;;
75061;SDS011;63641;46.526;24.612;2023-06-26T13:20:10;2.40;;;2.20;;
75061;SDS011;63641;46.526;24.612;2023-06-26T13:22:37;3.17;;;2.70;;
75061;SDS011;63641;46.526;24.612;2023-06-26T13:25:04;2.50;;;2.30;;
75061;SDS011;63641;46.526;24.612;2023-06-26T13:27:30;2.72;;;2.28;;
75061;SDS011;63641;46.526;24.612;2023-06-26T13:29:57;2.25;;;2.03;;
75061;SDS011;63641;46.526;24.612;2023-06-26T13:32:24;3.42;;;2.10;;
75061;SDS011;63641;46.526;24.612;2023-06-26T13:34:50;2.20;;;2.00;;
75061;SDS011;63641;46.526;24.612;2023-06-26T13:37:18;3.05;;;2.20;;
75061;SDS011;63641;46.526;24.612;2023-06-26T13:39:45;3.58;;;2.58;;
75061;SDS011;63641;46.526;24.612;2023-06-26T13:42:18;3.40;;;2.20;;
75061;SDS011;63641;46.526;24.612;2023-06-26T13:44:45;2.58;;;2.25;;
75061;SDS011;63641;46.526;24.612;2023-06-26T13:47:28;2.83;;;2.35;;
75061;SDS011;63641;46.526;24.612;2023-06-26T13:49:55;4.07;;;2.28;;
75061;SDS011;63641;46.526;24.612;2023-06-26T13:52:21;2.67;;;2.47;;
75061;SDS011;63641;46.526;24.612;2023-06-26T13:54:48;8.40;;;2.80;;
75061;SDS011;63641;46.526;24.612;2023-06-26T13:57:18;4.70;;;2.35;;
75061;SDS011;63641;46.526;24.612;2023-06-26T13:59:48;2.58;;;2.38;;
75061;SDS011;63641;46.526;24.612;2023-06-26T14:02:18;4.00;;;3.22;;
75061;SDS011;63641;46.526;24.612;2023-06-26T14:04:44;3.13;;;2.70;;
75061;SDS011;63641;46.526;24.612;2023-06-26T14:07:11;2.40;;;2.20;;
75061;SDS011;63641;46.526;24.612;2023-06-26T14:09:38;2.58;;;2.38;;
75061;SDS011;63641;46.526;24.612;2023-06-26T14:12:05;3.10;;;2.80;;
75061;SDS011;63641;46.526;24.612;2023-06-26T14:14:33;3.60;;;2.70;;
75061;SDS011;63641;46.526;24.612;2023-06-26T14:17:00;2.88;;;2.67;;
75061;SDS011;63641;46.526;24.612;2023-06-26T14:19:27;3.33;;;2.55;;
75061;SDS011;63641;46.526;24.612;2023-06-26T14:21:53;3.22;;;2.92;;
75061;SDS011;63641;46.526;24.612;2023-06-26T14:24:20;4.13;;;2.70;;
75061;SDS011;63641;46.526;24.612;2023-06-26T14:26:47;3.00;;;2.65;;
75061;SDS011;63641;46.526;24.612;2023-06-26T14:29:13;3.08;;;2.80;;
75061;SDS011;63641;46.526;24.612;2023-06-26T14:31:43;3.17;;;2.70;;
75061;SDS011;63641;46.526;24.612;2023-06-26T14:34:10;3.00;;;2.70;;
75061;SDS011;63641;46.526;24.612;2023-06-26T14:36:37;2.88;;;2.58;;
75061;SDS011;63641;46.526;24.612;2023-06-26T14:39:03;3.30;;;3.00;;
75061;SDS011;63641;46.526;24.612;2023-06-26T14:41:31;2.92;;;2.65;;
75061;SDS011;63641;46.526;24.612;2023-06-26T14:43:58;2.67;;;2.47;;
75061;SDS011;63641;46.526;24.612;2023-06-26T14:46:25;3.35;;;2.78;;
75061;SDS011;63641;46.526;24.612;2023-06-26T14:48:52;2.85;;;2.60;;
75061;SDS011;63641;46.526;24.612;2023-06-26T14:51:21;4.03;;;2.90;;
75061;SDS011;63641;46.526;24.612;2023-06-26T14:53:48;2.60;;;2.40;;
75061;SDS011;63641;46.526;24.612;2023-06-26T14:56:15;3.20;;;2.85;;
75061;SDS011;63641;46.526;24.612;2023-06-26T14:58:42;2.75;;;2.45;;